createdAt,value
2023-01-29T00:00:41.822Z,34.28
2023-01-29T00:03:08.372Z,34.27
2023-01-29T00:05:34.999Z,34.24
2023-01-29T00:08:01.912Z,34.17
2023-01-29T00:10:28.482Z,34.41
2023-01-29T00:12:56.324Z,34.23
2023-01-29T00:15:22.894Z,34.08
2023-01-29T00:17:49.446Z,34.11
2023-01-29T00:20:16.611Z,34.32
2023-01-29T00:22:43.318Z,34.33
2023-01-29T00:25:09.865Z,34.31
2023-01-29T00:27:36.531Z,34.13
2023-01-29T00:30:04.911Z,34.07
2023-01-29T00:32:32.399Z,34.35
2023-01-29T00:34:58.895Z,33.99
2023-01-29T00:37:25.474Z,34.07
2023-01-29T00:39:51.995Z,34.01
2023-01-29T00:42:18.488Z,34.24
2023-01-29T00:44:44.971Z,34.15
2023-01-29T00:47:12.805Z,34.13
2023-01-29T00:49:39.322Z,34.13
2023-01-29T00:52:05.809Z,33.99
2023-01-29T00:54:33.281Z,34.00
2023-01-29T00:56:59.876Z,34.38
2023-01-29T00:59:26.496Z,34.10
2023-01-29T01:01:53.209Z,34.13
2023-01-29T01:04:21.031Z,34.23
2023-01-29T01:06:47.535Z,34.06
2023-01-29T01:09:14.117Z,34.17
2023-01-29T01:11:40.690Z,33.80
2023-01-29T01:14:07.299Z,34.38
2023-01-29T01:16:33.870Z,33.99
2023-01-29T01:19:00.563Z,34.04
2023-01-29T01:21:28.441Z,33.87
2023-01-29T01:23:54.985Z,34.06
2023-01-29T01:26:21.634Z,34.07
2023-01-29T01:28:48.106Z,34.03
2023-01-29T01:31:14.890Z,33.63
2023-01-29T01:33:41.861Z,33.82
2023-01-29T01:36:08.498Z,34.28
2023-01-29T01:38:36.567Z,34.10
2023-01-29T01:41:03.168Z,33.93
2023-01-29T01:43:47.414Z,33.81
2023-01-29T01:46:13.774Z,34.12
2023-01-29T01:48:40.891Z,33.97
2023-01-29T01:51:07.591Z,34.00
2023-01-29T01:53:41.114Z,34.02
2023-01-29T01:56:10.258Z,34.10
2023-01-29T01:58:40.704Z,33.97
2023-01-29T02:01:08.763Z,34.25
2023-01-29T02:03:40.971Z,33.92
2023-01-29T02:06:09.020Z,34.08
2023-01-29T02:08:45.304Z,33.99
2023-01-29T02:11:11.970Z,34.05
2023-01-29T02:13:38.504Z,33.98
2023-01-29T02:16:05.436Z,33.97
2023-01-29T02:18:32.027Z,34.40
2023-01-29T02:21:18.047Z,34.00
2023-01-29T02:24:07.758Z,34.16
2023-01-29T02:26:44.909Z,33.74
2023-01-29T02:29:19.877Z,34.09
2023-01-29T02:31:55.478Z,34.11
2023-01-29T02:34:31.139Z,34.31
2023-01-29T02:37:06.409Z,34.17
2023-01-29T02:39:37.718Z,34.40
2023-01-29T02:42:15.431Z,34.07
2023-01-29T02:44:48.304Z,34.17
2023-01-29T02:47:21.793Z,34.06
2023-01-29T02:49:52.668Z,34.06
2023-01-29T02:52:23.283Z,34.15
2023-01-29T02:54:55.513Z,34.13
2023-01-29T02:57:26.584Z,34.19
2023-01-29T02:59:58.713Z,34.27
2023-01-29T03:02:32.257Z,34.25
2023-01-29T03:05:03.025Z,34.20
2023-01-29T03:07:35.359Z,34.10
2023-01-29T03:10:03.283Z,34.41
2023-01-29T03:12:33.557Z,34.20
2023-01-29T03:15:06.859Z,34.20
2023-01-29T03:17:40.060Z,34.33
2023-01-29T03:20:11.914Z,34.09
2023-01-29T03:22:41.024Z,34.11
2023-01-29T03:25:10.087Z,34.11
2023-01-29T03:27:41.457Z,34.36
2023-01-29T03:30:12.597Z,34.28
2023-01-29T03:32:39.253Z,34.00
2023-01-29T03:35:09.769Z,34.15
2023-01-29T03:37:40.518Z,34.26
2023-01-29T03:40:08.776Z,34.19
2023-01-29T03:42:52.473Z,34.34
2023-01-29T03:45:27.769Z,34.13
2023-01-29T03:48:04.383Z,34.34
2023-01-29T03:50:38.327Z,34.41
2023-01-29T03:53:08.089Z,34.29
2023-01-29T03:55:41.462Z,34.17
2023-01-29T03:58:21.283Z,34.10
2023-01-29T04:00:56.001Z,34.16
2023-01-29T04:03:28.873Z,34.22
2023-01-29T04:06:00.116Z,34.27
2023-01-29T04:08:30.434Z,34.30
2023-01-29T04:11:01.236Z,34.24
2023-01-29T04:13:31.547Z,34.06
2023-01-29T04:16:01.385Z,34.46
2023-01-29T04:18:28.056Z,34.46
2023-01-29T04:20:55.182Z,34.38
2023-01-29T04:23:23.559Z,34.35
2023-01-29T04:26:00.261Z,34.28
2023-01-29T04:28:42.889Z,34.32
2023-01-29T04:31:12.296Z,34.40
2023-01-29T04:33:51.272Z,34.21
2023-01-29T04:36:28.533Z,34.16
2023-01-29T04:39:07.284Z,34.46
2023-01-29T04:41:39.303Z,34.18
2023-01-29T04:44:11.232Z,34.33
2023-01-29T04:46:49.442Z,34.58
2023-01-29T04:49:29.761Z,34.39
2023-01-29T04:52:06.984Z,34.51
2023-01-29T04:54:47.852Z,34.47
2023-01-29T04:57:21.374Z,34.40
2023-01-29T04:59:54.752Z,34.43
2023-01-29T05:02:26.583Z,34.46
2023-01-29T05:04:54.500Z,34.38
2023-01-29T05:07:24.329Z,34.17
2023-01-29T05:09:51.449Z,34.29
2023-01-29T05:12:18.299Z,34.33
2023-01-29T05:14:47.239Z,34.34
2023-01-29T05:17:18.393Z,34.39
2023-01-29T05:19:47.419Z,34.40
2023-01-29T05:22:17.570Z,34.50
2023-01-29T05:24:44.310Z,34.44
2023-01-29T05:27:17.033Z,34.32
2023-01-29T05:29:46.075Z,34.29
2023-01-29T05:32:13.331Z,34.32
2023-01-29T05:34:39.831Z,34.24
2023-01-29T05:37:08.965Z,34.13
2023-01-29T05:39:35.654Z,34.56
2023-01-29T05:42:02.477Z,34.47
2023-01-29T05:44:28.980Z,34.39
2023-01-29T05:46:55.537Z,34.49
2023-01-29T05:49:22.137Z,34.29
2023-01-29T05:51:48.639Z,34.51
2023-01-29T05:54:16.546Z,34.34
2023-01-29T05:56:43.255Z,34.42
2023-01-29T05:59:09.823Z,34.34
2023-01-29T06:01:37.252Z,34.56
2023-01-29T06:04:03.881Z,34.51
2023-01-29T06:06:30.427Z,34.57
2023-01-29T06:08:56.929Z,34.35
2023-01-29T06:11:24.978Z,34.37
2023-01-29T06:13:51.456Z,34.48
2023-01-29T06:16:18.085Z,34.55
2023-01-29T06:18:44.637Z,34.50
2023-01-29T06:21:13.423Z,34.55
2023-01-29T06:23:40.084Z,34.40
2023-01-29T06:26:10.347Z,34.40
2023-01-29T06:28:38.593Z,34.70
2023-01-29T06:31:37.390Z,34.29
2023-01-29T06:33:53.324Z,34.57
2023-01-29T06:36:19.857Z,34.49
2023-01-29T06:38:46.388Z,34.53
2023-01-29T06:41:16.496Z,34.67
2023-01-29T06:43:45.703Z,34.37
2023-01-29T06:46:12.251Z,34.57
2023-01-29T06:48:38.793Z,34.61
2023-01-29T06:51:07.009Z,34.61
2023-01-29T06:53:34.769Z,34.62
2023-01-29T06:56:01.307Z,34.49
2023-01-29T06:58:27.843Z,34.49
2023-01-29T07:01:03.360Z,34.51
2023-01-29T07:03:29.892Z,34.67
2023-01-29T07:05:56.399Z,34.70
2023-01-29T07:08:22.901Z,34.61
2023-01-29T07:10:50.159Z,34.65
2023-01-29T07:13:16.888Z,34.56
2023-01-29T07:15:43.537Z,34.64
2023-01-29T07:18:11.395Z,34.67
2023-01-29T07:20:38.947Z,34.57
2023-01-29T07:23:05.750Z,34.77
2023-01-29T07:25:33.662Z,34.77
2023-01-29T07:28:01.082Z,34.66
2023-01-29T07:30:28.085Z,34.79
2023-01-29T07:32:54.814Z,34.60
2023-01-29T07:35:22.600Z,34.70
2023-01-29T07:37:49.825Z,34.74
2023-01-29T07:40:16.683Z,34.76
2023-01-29T07:42:43.392Z,34.81
2023-01-29T07:45:11.507Z,34.79
2023-01-29T07:47:38.169Z,34.74
2023-01-29T07:50:05.798Z,34.64
2023-01-29T07:52:34.044Z,34.82
2023-01-29T07:55:00.583Z,34.75
2023-01-29T07:57:27.078Z,34.71
2023-01-29T07:59:53.592Z,34.76
2023-01-29T08:02:20.148Z,34.78
2023-01-29T08:04:46.702Z,34.87
2023-01-29T08:07:13.194Z,34.76
2023-01-29T08:09:41.014Z,34.89
2023-01-29T08:12:07.575Z,34.77
2023-01-29T08:14:34.104Z,34.88
2023-01-29T08:17:00.633Z,34.82
2023-01-29T08:19:27.266Z,34.89
2023-01-29T08:21:53.791Z,34.71
2023-01-29T08:24:21.051Z,35.00
2023-01-29T08:26:48.905Z,34.73
2023-01-29T08:29:15.429Z,35.01
2023-01-29T08:31:42.122Z,34.69
2023-01-29T08:34:08.619Z,35.06
2023-01-29T08:36:35.664Z,34.74
2023-01-29T08:39:02.354Z,34.98
2023-01-29T08:41:28.908Z,34.86
2023-01-29T08:43:56.728Z,34.95
2023-01-29T08:46:23.311Z,34.92
2023-01-29T08:48:49.907Z,34.82
2023-01-29T08:51:16.529Z,35.19
2023-01-29T08:53:43.080Z,34.88
2023-01-29T08:56:09.659Z,34.76
2023-01-29T08:58:36.208Z,34.99
2023-01-29T09:01:08.222Z,34.95
2023-01-29T09:03:35.479Z,35.15
2023-01-29T09:06:02.249Z,34.90
2023-01-29T09:08:28.867Z,35.09
2023-01-29T09:10:58.202Z,35.03
2023-01-29T09:13:24.707Z,34.98
2023-01-29T09:15:51.240Z,35.18
2023-01-29T09:18:19.144Z,34.82
2023-01-29T09:20:45.646Z,34.90
2023-01-29T09:23:12.304Z,35.02
2023-01-29T09:25:38.890Z,34.85
2023-01-29T09:28:05.724Z,34.96
2023-01-29T09:30:32.364Z,34.84
2023-01-29T09:33:00.334Z,34.88
2023-01-29T09:35:28.134Z,34.97
2023-01-29T09:37:54.655Z,34.95
2023-01-29T09:40:25.938Z,34.83
2023-01-29T09:42:56.565Z,34.89
2023-01-29T09:45:26.474Z,34.86
2023-01-29T09:47:55.912Z,34.95
2023-01-29T09:50:29.891Z,34.94
2023-01-29T09:52:58.680Z,35.03
2023-01-29T09:55:28.616Z,35.03
2023-01-29T09:57:59.094Z,34.81
2023-01-29T10:00:32.857Z,34.76
2023-01-29T10:03:16.225Z,34.81
2023-01-29T10:05:58.015Z,35.15
2023-01-29T10:08:42.397Z,34.82
2023-01-29T10:11:23.364Z,35.17
2023-01-29T10:14:01.378Z,34.97
2023-01-29T10:16:38.203Z,34.88
2023-01-29T10:19:18.256Z,34.88
2023-01-29T10:21:59.100Z,35.03
2023-01-29T10:24:36.552Z,34.75
2023-01-29T10:27:05.860Z,34.87
2023-01-29T10:29:34.062Z,34.89
2023-01-29T10:32:02.643Z,35.05
2023-01-29T10:34:35.110Z,34.97
2023-01-29T10:37:13.196Z,34.95
2023-01-29T10:39:39.750Z,35.02
2023-01-29T10:42:19.533Z,34.87
2023-01-29T10:44:59.578Z,34.81
2023-01-29T10:47:46.962Z,34.85
2023-01-29T10:50:22.618Z,34.73
2023-01-29T10:53:09.804Z,35.01
2023-01-29T10:55:46.652Z,35.04
2023-01-29T10:58:22.025Z,34.84
2023-01-29T11:00:49.227Z,34.76
2023-01-29T11:03:27.461Z,34.68
2023-01-29T11:06:02.686Z,34.87
2023-01-29T11:08:37.245Z,34.67
2023-01-29T11:11:07.768Z,34.86
2023-01-29T11:13:40.283Z,34.91
2023-01-29T11:16:09.037Z,34.83
2023-01-29T11:18:51.089Z,34.75
2023-01-29T11:21:17.647Z,34.67
2023-01-29T11:23:45.624Z,34.83
2023-01-29T11:26:16.764Z,35.02
2023-01-29T11:28:45.173Z,34.77
2023-01-29T11:31:19.128Z,34.90
2023-01-29T11:33:45.896Z,34.85
2023-01-29T11:36:29.366Z,34.64
2023-01-29T11:39:14.915Z,34.81
2023-01-29T11:41:43.772Z,34.78
2023-01-29T11:44:20.079Z,34.83
2023-01-29T11:46:47.494Z,34.45
2023-01-29T11:49:27.421Z,34.61
2023-01-29T11:51:56.011Z,34.77
2023-01-29T11:54:27.960Z,34.91
2023-01-29T11:56:55.685Z,34.66
2023-01-29T11:59:39.469Z,34.88
2023-01-29T12:02:18.806Z,34.72
2023-01-29T12:04:46.461Z,34.73
2023-01-29T12:07:15.887Z,34.68
2023-01-29T12:09:49.483Z,34.90
2023-01-29T12:12:26.336Z,34.84
2023-01-29T12:15:04.953Z,34.56
2023-01-29T12:17:36.275Z,34.82
2023-01-29T12:20:11.993Z,34.88
2023-01-29T12:22:46.736Z,34.90
2023-01-29T12:25:23.136Z,34.78
2023-01-29T12:27:59.317Z,34.75
2023-01-29T12:30:31.451Z,34.82
2023-01-29T12:33:04.829Z,34.74
2023-01-29T12:35:35.122Z,34.58
2023-01-29T12:38:04.340Z,34.78
2023-01-29T12:40:40.178Z,34.56
2023-01-29T12:43:15.232Z,34.67
2023-01-29T12:45:43.614Z,34.83
2023-01-29T12:48:14.243Z,34.88
2023-01-29T12:50:41.083Z,34.90
2023-01-29T12:53:19.856Z,34.74
2023-01-29T12:55:51.174Z,34.76
2023-01-29T12:58:23.933Z,34.73
2023-01-29T13:00:54.576Z,35.08
2023-01-29T13:03:25.440Z,34.70
2023-01-29T13:05:55.200Z,34.68
2023-01-29T13:08:29.056Z,34.79
2023-01-29T13:11:00.384Z,34.72
2023-01-29T13:13:31.526Z,34.82
2023-01-29T13:15:59.430Z,34.62
2023-01-29T13:18:39.907Z,34.90
2023-01-29T13:21:11.947Z,34.70
2023-01-29T13:23:44.008Z,34.94
2023-01-29T13:26:14.011Z,34.89
2023-01-29T13:28:44.827Z,34.98
2023-01-29T13:31:14.842Z,34.96
2023-01-29T13:33:42.913Z,34.97
2023-01-29T13:36:19.955Z,34.83
2023-01-29T13:38:54.160Z,35.13
2023-01-29T13:41:32.588Z,35.09
2023-01-29T13:43:59.366Z,34.85
2023-01-29T13:46:26.093Z,34.96
2023-01-29T13:48:53.073Z,35.00
2023-01-29T13:51:22.666Z,34.96
2023-01-29T13:53:56.678Z,34.93
2023-01-29T13:56:42.567Z,35.13
2023-01-29T13:59:22.765Z,35.16
2023-01-29T14:02:00.920Z,35.32
2023-01-29T14:04:29.846Z,35.01
2023-01-29T14:06:57.794Z,35.11
2023-01-29T14:09:47.267Z,35.30
2023-01-29T14:12:36.286Z,35.00
2023-01-29T14:15:15.265Z,34.93
2023-01-29T14:17:59.406Z,34.90
2023-01-29T14:20:43.159Z,35.09
2023-01-29T14:23:23.645Z,35.22
2023-01-29T14:25:50.523Z,35.19
2023-01-29T14:28:23.351Z,35.07
2023-01-29T14:30:51.129Z,35.42
2023-01-29T14:33:26.703Z,35.39
2023-01-29T14:35:55.799Z,35.43
2023-01-29T14:38:26.161Z,35.31
2023-01-29T14:41:04.361Z,35.50
2023-01-29T14:43:32.298Z,35.26
2023-01-29T14:46:40.052Z,35.39
2023-01-29T14:49:08.261Z,35.38
2023-01-29T14:51:38.271Z,35.45
2023-01-29T14:54:14.866Z,35.65
2023-01-29T14:56:49.831Z,35.46
2023-01-29T14:59:21.846Z,35.47
2023-01-29T15:01:52.944Z,35.26
2023-01-29T15:04:25.626Z,35.66
2023-01-29T15:06:59.311Z,35.75
2023-01-29T15:09:36.819Z,35.55
2023-01-29T15:12:13.509Z,35.45
2023-01-29T15:14:47.602Z,35.74
2023-01-29T15:17:22.913Z,35.75
2023-01-29T15:19:49.588Z,35.51
2023-01-29T15:22:17.741Z,35.63
2023-01-29T15:24:46.157Z,35.85
2023-01-29T15:27:16.609Z,35.71
2023-01-29T15:29:48.530Z,35.64
2023-01-29T15:32:22.032Z,35.64
2023-01-29T15:34:49.420Z,35.84
2023-01-29T15:37:25.797Z,35.87
2023-01-29T15:39:53.214Z,35.77
2023-01-29T15:42:19.786Z,35.83
2023-01-29T15:44:47.665Z,35.96
2023-01-29T15:47:15.390Z,35.88
2023-01-29T15:49:42.335Z,36.04
2023-01-29T15:52:20.358Z,35.83
2023-01-29T15:54:47.396Z,35.95
2023-01-29T15:57:22.493Z,36.00
2023-01-29T15:59:52.207Z,35.73
2023-01-29T16:02:25.680Z,35.65
2023-01-29T16:04:53.064Z,35.93
2023-01-29T16:07:19.667Z,35.89
2023-01-29T16:09:46.525Z,35.81
2023-01-29T16:12:14.382Z,35.88
2023-01-29T16:14:41.675Z,36.01
2023-01-29T16:17:24.067Z,36.07
2023-01-29T16:19:58.617Z,35.99
2023-01-29T16:22:28.933Z,36.01
2023-01-29T16:24:55.598Z,35.95
2023-01-29T16:27:24.986Z,36.04
2023-01-29T16:29:51.873Z,35.95
2023-01-29T16:32:21.441Z,35.89
2023-01-29T16:34:49.205Z,35.96
2023-01-29T16:37:21.828Z,35.99
2023-01-29T16:39:49.840Z,36.23
2023-01-29T16:42:23.062Z,36.44
2023-01-29T16:44:52.320Z,36.15
2023-01-29T16:47:26.702Z,36.15
2023-01-29T16:49:55.189Z,36.04
2023-01-29T16:52:24.866Z,36.23
2023-01-29T16:54:58.352Z,36.18
2023-01-29T16:57:27.325Z,36.09
2023-01-29T16:59:56.872Z,36.16
2023-01-29T17:02:27.459Z,35.97
2023-01-29T17:04:58.515Z,36.21
2023-01-29T17:07:25.714Z,36.28
2023-01-29T17:09:56.217Z,36.52
2023-01-29T17:12:26.140Z,36.31
2023-01-29T17:14:54.252Z,36.28
2023-01-29T17:17:20.760Z,36.21
2023-01-29T17:19:48.633Z,36.21
2023-01-29T17:22:15.169Z,36.42
2023-01-29T17:24:41.912Z,36.20
2023-01-29T17:27:16.903Z,36.28
2023-01-29T17:29:43.483Z,36.53
2023-01-29T17:32:10.075Z,36.31
2023-01-29T17:34:36.789Z,36.17
2023-01-29T17:37:04.688Z,36.65
2023-01-29T17:39:31.770Z,36.28
2023-01-29T17:41:58.781Z,36.45
2023-01-29T17:44:25.438Z,36.49
2023-01-29T17:46:52.073Z,36.35
2023-01-29T17:49:22.973Z,36.50
2023-01-29T17:51:50.141Z,36.63
2023-01-29T17:54:19.203Z,36.71
2023-01-29T17:56:45.925Z,36.38
2023-01-29T17:59:14.492Z,36.57
2023-01-29T18:01:41.271Z,36.59
2023-01-29T18:04:08.206Z,36.53
2023-01-29T18:06:34.970Z,36.42
2023-01-29T18:09:01.906Z,36.72
2023-01-29T18:11:30.259Z,36.47
2023-01-29T18:13:57.552Z,36.35
2023-01-29T18:16:24.859Z,36.77
2023-01-29T18:18:52.268Z,36.58
2023-01-29T18:21:18.877Z,36.90
2023-01-29T18:23:45.390Z,36.62
2023-01-29T18:26:16.609Z,36.45
2023-01-29T18:28:44.447Z,36.74
2023-01-29T18:31:13.165Z,36.39
2023-01-29T18:33:40.518Z,36.67
2023-01-29T18:36:08.059Z,36.60
2023-01-29T18:38:34.634Z,36.72
2023-01-29T18:41:05.089Z,36.73
2023-01-29T18:43:31.815Z,36.83
2023-01-29T18:45:59.779Z,36.75
2023-01-29T18:48:26.394Z,36.67
2023-01-29T18:50:52.925Z,36.74
2023-01-29T18:53:19.414Z,36.73
2023-01-29T18:55:54.369Z,36.78
2023-01-29T18:58:26.804Z,36.61
2023-01-29T19:01:03.090Z,36.54
2023-01-29T19:03:29.659Z,36.51
2023-01-29T19:06:00.557Z,36.75
2023-01-29T19:08:27.070Z,36.70
2023-01-29T19:10:53.548Z,36.79
2023-01-29T19:13:20.083Z,36.67
2023-01-29T19:15:46.752Z,36.59
2023-01-29T19:18:15.162Z,36.96
2023-01-29T19:20:41.697Z,36.59
2023-01-29T19:23:08.526Z,36.77
2023-01-29T19:25:37.152Z,36.86
2023-01-29T19:28:03.698Z,36.87
2023-01-29T19:30:30.296Z,36.77
2023-01-29T19:32:56.804Z,36.75
2023-01-29T19:35:24.747Z,36.84
2023-01-29T19:37:51.294Z,36.67
2023-01-29T19:40:18.277Z,36.67
2023-01-29T19:42:44.802Z,36.56
2023-01-29T19:45:11.459Z,36.72
2023-01-29T19:47:38.877Z,36.64
2023-01-29T19:50:06.587Z,36.78
2023-01-29T19:52:51.060Z,36.63
2023-01-29T19:55:19.671Z,36.96
2023-01-29T19:57:46.347Z,36.83
2023-01-29T20:00:14.065Z,36.49
2023-01-29T20:02:40.598Z,36.86
2023-01-29T20:05:07.965Z,36.84
2023-01-29T20:07:35.808Z,36.67
2023-01-29T20:10:02.352Z,36.89
2023-01-29T20:12:28.860Z,36.47
2023-01-29T20:14:55.418Z,36.82
2023-01-29T20:17:21.943Z,36.69
2023-01-29T20:19:48.547Z,36.74
2023-01-29T20:22:15.112Z,36.94
2023-01-29T20:24:42.902Z,36.88
2023-01-29T20:27:09.932Z,36.84
2023-01-29T20:29:36.999Z,36.74
2023-01-29T20:32:03.923Z,37.03
2023-01-29T20:34:30.897Z,36.95
2023-01-29T20:36:57.496Z,36.82
2023-01-29T20:39:24.028Z,36.95
2023-01-29T20:41:51.964Z,36.94
2023-01-29T20:44:18.520Z,37.13
2023-01-29T20:46:45.507Z,36.99
2023-01-29T20:49:12.026Z,36.93
2023-01-29T20:51:38.714Z,36.73
2023-01-29T20:54:05.436Z,36.88
2023-01-29T20:56:38.162Z,36.86
2023-01-29T20:59:11.231Z,36.90
2023-01-29T21:01:37.755Z,36.93
2023-01-29T21:04:04.260Z,36.98
2023-01-29T21:06:31.177Z,36.82
2023-01-29T21:08:57.680Z,36.94
2023-01-29T21:11:24.546Z,36.91
2023-01-29T21:13:51.085Z,36.72
2023-01-29T21:16:18.933Z,36.99
2023-01-29T21:18:45.449Z,36.73
2023-01-29T21:21:11.918Z,36.89
2023-01-29T21:23:38.518Z,36.76
2023-01-29T21:26:06.521Z,36.84
2023-01-29T21:28:33.580Z,37.01
2023-01-29T21:31:05.283Z,37.00
2023-01-29T21:33:33.405Z,36.93
2023-01-29T21:36:00.360Z,37.08
2023-01-29T21:38:27.211Z,36.95
2023-01-29T21:40:59.240Z,36.93
2023-01-29T21:43:25.720Z,37.00
2023-01-29T21:45:55.417Z,37.11
2023-01-29T21:48:22.000Z,37.10
2023-01-29T21:50:49.979Z,36.79
2023-01-29T21:53:16.658Z,36.97
2023-01-29T21:55:43.293Z,36.98
2023-01-29T21:58:10.377Z,37.16
2023-01-29T22:00:37.186Z,36.71
2023-01-29T22:03:04.254Z,37.04
2023-01-29T22:05:30.873Z,37.14
2023-01-29T22:07:58.732Z,37.29
2023-01-29T22:10:25.629Z,36.94
2023-01-29T22:12:52.277Z,37.29
2023-01-29T22:15:18.757Z,37.19
2023-01-29T22:17:45.266Z,37.38
2023-01-29T22:20:13.409Z,37.22
2023-01-29T22:22:39.936Z,37.23
2023-01-29T22:25:08.528Z,37.23
2023-01-29T22:27:35.261Z,37.35
2023-01-29T22:30:02.168Z,37.12
2023-01-29T22:32:28.790Z,37.21
2023-01-29T22:34:55.408Z,37.20
2023-01-29T22:37:22.120Z,37.19
2023-01-29T22:39:48.617Z,37.26
2023-01-29T22:42:18.732Z,37.33
2023-01-29T22:44:45.231Z,37.30
2023-01-29T22:47:11.716Z,37.49
2023-01-29T22:49:38.225Z,37.38
2023-01-29T22:52:05.065Z,37.21
2023-01-29T22:54:31.592Z,37.23
2023-01-29T22:56:58.089Z,37.48
2023-01-29T22:59:26.080Z,37.33
2023-01-29T23:01:52.741Z,37.35
2023-01-29T23:04:19.324Z,37.22
2023-01-29T23:06:45.816Z,37.36
2023-01-29T23:09:12.411Z,37.47
2023-01-29T23:11:38.907Z,37.43
2023-01-29T23:14:05.445Z,37.19
2023-01-29T23:16:33.278Z,37.26
2023-01-29T23:18:59.791Z,37.48
2023-01-29T23:21:26.581Z,37.28
2023-01-29T23:23:53.101Z,37.41
2023-01-29T23:26:19.732Z,37.44
2023-01-29T23:28:46.605Z,37.42
2023-01-29T23:31:13.714Z,37.46
2023-01-29T23:33:42.054Z,37.28
2023-01-29T23:36:08.939Z,37.49
2023-01-29T23:38:35.539Z,37.48
2023-01-29T23:41:02.049Z,37.43
2023-01-29T23:43:29.863Z,37.40
2023-01-29T23:45:56.927Z,37.62
2023-01-29T23:48:23.838Z,37.46
2023-01-29T23:50:51.661Z,37.63
2023-01-29T23:53:18.399Z,37.49
2023-01-29T23:55:55.803Z,37.41
2023-01-29T23:58:22.322Z,37.46
